sensor_id;sensor_type;location;lat;lon;timestamp;P1;durP1;ratioP1;P2;durP2;ratioP2
49784;SDS011;35679;38.732;-121.358;2023-11-18T00:00:54;3.90;;;3.70;;
49784;SDS011;35679;38.732;-121.358;2023-11-18T00:03:43;3.50;;;3.30;;
49784;SDS011;35679;38.732;-121.358;2023-11-18T00:06:33;3.72;;;3.50;;
49784;SDS011;35679;38.732;-121.358;2023-11-18T00:09:22;3.63;;;3.33;;
49784;SDS011;35679;38.732;-121.358;2023-11-18T00:12:13;4.18;;;3.90;;
49784;SDS011;35679;38.732;-121.358;2023-11-18T00:15:03;4.40;;;4.10;;
49784;SDS011;35679;38.732;-121.358;2023-11-18T00:17:53;6.65;;;6.15;;
49784;SDS011;35679;38.732;-121.358;2023-11-18T00:20:42;8.02;;;7.53;;
49784;SDS011;35679;38.732;-121.358;2023-11-18T00:23:31;8.90;;;8.30;;
49784;SDS011;35679;38.732;-121.358;2023-11-18T00:26:21;6.47;;;6.07;;
49784;SDS011;35679;38.732;-121.358;2023-11-18T00:29:17;6.90;;;6.50;;
49784;SDS011;35679;38.732;-121.358;2023-11-18T00:32:07;10.57;;;9.98;;
49784;SDS011;35679;38.732;-121.358;2023-11-18T00:34:56;10.60;;;10.10;;
49784;SDS011;35679;38.732;-121.358;2023-11-18T00:37:46;9.57;;;8.98;;
49784;SDS011;35679;38.732;-121.358;2023-11-18T00:40:36;6.90;;;6.50;;
49784;SDS011;35679;38.732;-121.358;2023-11-18T00:43:25;6.55;;;6.25;;
49784;SDS011;35679;38.732;-121.358;2023-11-18T00:46:15;6.30;;;5.90;;
49784;SDS011;35679;38.732;-121.358;2023-11-18T00:49:06;6.32;;;5.93;;
49784;SDS011;35679;38.732;-121.358;2023-11-18T00:51:55;5.30;;;5.05;;
49784;SDS011;35679;38.732;-121.358;2023-11-18T00:54:45;5.55;;;5.25;;
49784;SDS011;35679;38.732;-121.358;2023-11-18T00:57:34;6.07;;;5.68;;
49784;SDS011;35679;38.732;-121.358;2023-11-18T01:00:24;5.65;;;5.25;;
49784;SDS011;35679;38.732;-121.358;2023-11-18T01:03:14;5.18;;;4.72;;
49784;SDS011;35679;38.732;-121.358;2023-11-18T01:06:04;5.70;;;5.20;;
49784;SDS011;35679;38.732;-121.358;2023-11-18T01:08:54;5.47;;;5.18;;
49784;SDS011;35679;38.732;-121.358;2023-11-18T01:11:43;5.90;;;5.50;;
49784;SDS011;35679;38.732;-121.358;2023-11-18T01:14:53;5.10;;;4.80;;
49784;SDS011;35679;38.732;-121.358;2023-11-18T01:17:42;5.55;;;5.25;;
49784;SDS011;35679;38.732;-121.358;2023-11-18T01:20:32;5.57;;;5.18;;
49784;SDS011;35679;38.732;-121.358;2023-11-18T01:23:22;4.30;;;3.90;;
49784;SDS011;35679;38.732;-121.358;2023-11-18T01:26:11;4.00;;;3.70;;
49784;SDS011;35679;38.732;-121.358;2023-11-18T01:29:01;4.10;;;3.80;;
49784;SDS011;35679;38.732;-121.358;2023-11-18T01:31:52;3.83;;;3.53;;
49784;SDS011;35679;38.732;-121.358;2023-11-18T01:34:43;3.95;;;3.28;;
49784;SDS011;35679;38.732;-121.358;2023-11-18T01:37:39;4.13;;;3.80;;
49784;SDS011;35679;38.732;-121.358;2023-11-18T01:40:32;3.92;;;3.70;;
49784;SDS011;35679;38.732;-121.358;2023-11-18T01:43:22;4.03;;;3.65;;
49784;SDS011;35679;38.732;-121.358;2023-11-18T01:46:12;3.50;;;3.30;;
49784;SDS011;35679;38.732;-121.358;2023-11-18T01:49:02;3.97;;;3.67;;
49784;SDS011;35679;38.732;-121.358;2023-11-18T01:51:52;3.65;;;3.35;;
49784;SDS011;35679;38.732;-121.358;2023-11-18T01:54:42;3.70;;;3.50;;
49784;SDS011;35679;38.732;-121.358;2023-11-18T01:57:33;3.97;;;3.67;;
49784;SDS011;35679;38.732;-121.358;2023-11-18T02:00:24;4.15;;;3.85;;
49784;SDS011;35679;38.732;-121.358;2023-11-18T02:03:13;4.25;;;3.85;;
49784;SDS011;35679;38.732;-121.358;2023-11-18T02:06:03;4.43;;;3.58;;
49784;SDS011;35679;38.732;-121.358;2023-11-18T02:08:54;4.20;;;3.90;;
49784;SDS011;35679;38.732;-121.358;2023-11-18T02:11:51;3.70;;;3.30;;
49784;SDS011;35679;38.732;-121.358;2023-11-18T02:14:43;3.78;;;3.45;;
49784;SDS011;35679;38.732;-121.358;2023-11-18T02:17:34;3.65;;;3.38;;
49784;SDS011;35679;38.732;-121.358;2023-11-18T02:20:24;3.60;;;3.30;;
49784;SDS011;35679;38.732;-121.358;2023-11-18T02:23:15;3.95;;;3.65;;
49784;SDS011;35679;38.732;-121.358;2023-11-18T02:26:05;3.20;;;3.00;;
49784;SDS011;35679;38.732;-121.358;2023-11-18T02:28:55;3.67;;;3.47;;
49784;SDS011;35679;38.732;-121.358;2023-11-18T02:31:45;4.70;;;4.30;;
49784;SDS011;35679;38.732;-121.358;2023-11-18T02:34:40;4.00;;;3.67;;
49784;SDS011;35679;38.732;-121.358;2023-11-18T02:37:40;3.88;;;3.58;;
49784;SDS011;35679;38.732;-121.358;2023-11-18T02:40:35;3.75;;;3.40;;
49784;SDS011;35679;38.732;-121.358;2023-11-18T02:43:29;32.38;;;30.67;;
49784;SDS011;35679;38.732;-121.358;2023-11-18T02:46:18;31.33;;;29.58;;
49784;SDS011;35679;38.732;-121.358;2023-11-18T02:49:10;32.90;;;31.10;;
49784;SDS011;35679;38.732;-121.358;2023-11-18T02:51:59;35.13;;;33.03;;
49784;SDS011;35679;38.732;-121.358;2023-11-18T02:54:48;34.20;;;32.20;;
49784;SDS011;35679;38.732;-121.358;2023-11-18T02:57:38;33.50;;;31.50;;
49784;SDS011;35679;38.732;-121.358;2023-11-18T03:00:27;34.75;;;32.70;;
49784;SDS011;35679;38.732;-121.358;2023-11-18T03:03:17;34.88;;;32.78;;
49784;SDS011;35679;38.732;-121.358;2023-11-18T03:06:06;34.50;;;32.42;;
49784;SDS011;35679;38.732;-121.358;2023-11-18T03:08:56;32.75;;;30.67;;
49784;SDS011;35679;38.732;-121.358;2023-11-18T03:11:46;35.60;;;33.50;;
49784;SDS011;35679;38.732;-121.358;2023-11-18T03:14:35;35.88;;;33.67;;
49784;SDS011;35679;38.732;-121.358;2023-11-18T03:17:25;36.30;;;34.10;;
49784;SDS011;35679;38.732;-121.358;2023-11-18T03:20:18;34.55;;;32.35;;
49784;SDS011;35679;38.732;-121.358;2023-11-18T03:23:09;34.17;;;32.08;;
49784;SDS011;35679;38.732;-121.358;2023-11-18T03:25:58;33.50;;;31.50;;
49784;SDS011;35679;38.732;-121.358;2023-11-18T03:28:47;32.78;;;30.83;;
49784;SDS011;35679;38.732;-121.358;2023-11-18T03:31:38;33.65;;;31.65;;
49784;SDS011;35679;38.732;-121.358;2023-11-18T03:34:27;32.55;;;30.52;;
49784;SDS011;35679;38.732;-121.358;2023-11-18T03:37:17;36.88;;;34.67;;
49784;SDS011;35679;38.732;-121.358;2023-11-18T03:40:10;33.85;;;31.65;;
49784;SDS011;35679;38.732;-121.358;2023-11-18T03:43:01;32.88;;;30.98;;
49784;SDS011;35679;38.732;-121.358;2023-11-18T03:45:51;35.70;;;33.70;;
49784;SDS011;35679;38.732;-121.358;2023-11-18T03:48:44;36.00;;;33.80;;
49784;SDS011;35679;38.732;-121.358;2023-11-18T03:51:34;36.55;;;34.45;;
49784;SDS011;35679;38.732;-121.358;2023-11-18T03:54:23;36.90;;;34.70;;
49784;SDS011;35679;38.732;-121.358;2023-11-18T03:57:13;35.42;;;33.42;;
49784;SDS011;35679;38.732;-121.358;2023-11-18T04:00:02;38.58;;;36.28;;
49784;SDS011;35679;38.732;-121.358;2023-11-18T04:02:59;34.28;;;32.28;;
49784;SDS011;35679;38.732;-121.358;2023-11-18T04:05:49;36.50;;;34.40;;
49784;SDS011;35679;38.732;-121.358;2023-11-18T04:08:38;39.20;;;36.90;;
49784;SDS011;35679;38.732;-121.358;2023-11-18T04:11:27;38.80;;;36.53;;
49784;SDS011;35679;38.732;-121.358;2023-11-18T04:14:17;35.67;;;33.58;;
49784;SDS011;35679;38.732;-121.358;2023-11-18T04:17:07;36.05;;;33.92;;
49784;SDS011;35679;38.732;-121.358;2023-11-18T04:19:56;39.90;;;37.63;;
49784;SDS011;35679;38.732;-121.358;2023-11-18T04:22:46;39.15;;;36.95;;
49784;SDS011;35679;38.732;-121.358;2023-11-18T04:25:35;36.63;;;34.53;;
49784;SDS011;35679;38.732;-121.358;2023-11-18T04:28:24;39.10;;;36.85;;
49784;SDS011;35679;38.732;-121.358;2023-11-18T04:31:15;12.93;;;12.23;;
49784;SDS011;35679;38.732;-121.358;2023-11-18T04:34:04;13.38;;;12.57;;
49784;SDS011;35679;38.732;-121.358;2023-11-18T04:36:54;13.05;;;12.35;;
49784;SDS011;35679;38.732;-121.358;2023-11-18T04:39:43;10.10;;;9.60;;
49784;SDS011;35679;38.732;-121.358;2023-11-18T04:42:33;11.40;;;10.70;;
49784;SDS011;35679;38.732;-121.358;2023-11-18T04:45:22;12.60;;;11.90;;
49784;SDS011;35679;38.732;-121.358;2023-11-18T04:48:12;12.52;;;11.80;;
49784;SDS011;35679;38.732;-121.358;2023-11-18T04:51:05;11.98;;;11.18;;
49784;SDS011;35679;38.732;-121.358;2023-11-18T04:53:54;11.20;;;10.50;;
49784;SDS011;35679;38.732;-121.358;2023-11-18T04:56:44;11.50;;;10.80;;
49784;SDS011;35679;38.732;-121.358;2023-11-18T04:59:33;12.18;;;11.48;;
49784;SDS011;35679;38.732;-121.358;2023-11-18T05:02:23;11.25;;;10.55;;
49784;SDS011;35679;38.732;-121.358;2023-11-18T05:05:15;12.35;;;11.65;;
49784;SDS011;35679;38.732;-121.358;2023-11-18T05:08:05;12.20;;;11.55;;
49784;SDS011;35679;38.732;-121.358;2023-11-18T05:10:56;13.82;;;13.02;;
49784;SDS011;35679;38.732;-121.358;2023-11-18T05:13:46;14.45;;;13.65;;
49784;SDS011;35679;38.732;-121.358;2023-11-18T05:16:35;13.60;;;12.80;;
49784;SDS011;35679;38.732;-121.358;2023-11-18T05:19:25;11.88;;;11.23;;
49784;SDS011;35679;38.732;-121.358;2023-11-18T05:22:14;10.90;;;10.30;;
49784;SDS011;35679;38.732;-121.358;2023-11-18T05:25:04;11.43;;;10.73;;
49784;SDS011;35679;38.732;-121.358;2023-11-18T05:27:53;10.95;;;10.30;;
49784;SDS011;35679;38.732;-121.358;2023-11-18T05:30:43;12.38;;;11.68;;
49784;SDS011;35679;38.732;-121.358;2023-11-18T05:33:32;13.10;;;12.40;;
49784;SDS011;35679;38.732;-121.358;2023-11-18T05:36:23;7.65;;;7.15;;
49784;SDS011;35679;38.732;-121.358;2023-11-18T05:39:16;7.50;;;7.00;;
49784;SDS011;35679;38.732;-121.358;2023-11-18T05:42:05;8.85;;;8.25;;
49784;SDS011;35679;38.732;-121.358;2023-11-18T05:44:54;9.20;;;8.60;;
49784;SDS011;35679;38.732;-121.358;2023-11-18T05:47:47;7.93;;;7.40;;
49784;SDS011;35679;38.732;-121.358;2023-11-18T05:50:37;7.63;;;7.13;;
49784;SDS011;35679;38.732;-121.358;2023-11-18T05:53:26;7.50;;;7.00;;
49784;SDS011;35679;38.732;-121.358;2023-11-18T05:56:20;5.63;;;5.28;;
49784;SDS011;35679;38.732;-121.358;2023-11-18T05:59:14;6.43;;;6.00;;
49784;SDS011;35679;38.732;-121.358;2023-11-18T06:02:03;6.25;;;5.82;;
49784;SDS011;35679;38.732;-121.358;2023-11-18T06:04:53;6.50;;;6.10;;
49784;SDS011;35679;38.732;-121.358;2023-11-18T06:07:43;7.13;;;6.63;;
49784;SDS011;35679;38.732;-121.358;2023-11-18T06:10:32;7.38;;;6.82;;
49784;SDS011;35679;38.732;-121.358;2023-11-18T06:13:22;7.60;;;7.10;;
49784;SDS011;35679;38.732;-121.358;2023-11-18T06:16:12;7.40;;;6.80;;
49784;SDS011;35679;38.732;-121.358;2023-11-18T06:19:11;7.78;;;7.25;;
49784;SDS011;35679;38.732;-121.358;2023-11-18T06:22:00;7.18;;;6.78;;
49784;SDS011;35679;38.732;-121.358;2023-11-18T06:24:50;7.40;;;6.80;;
49784;SDS011;35679;38.732;-121.358;2023-11-18T06:27:42;7.20;;;6.70;;
49784;SDS011;35679;38.732;-121.358;2023-11-18T06:30:33;5.95;;;5.55;;
49784;SDS011;35679;38.732;-121.358;2023-11-18T06:33:24;5.38;;;5.05;;
49784;SDS011;35679;38.732;-121.358;2023-11-18T06:36:16;5.40;;;5.10;;
49784;SDS011;35679;38.732;-121.358;2023-11-18T06:39:07;5.80;;;5.30;;
49784;SDS011;35679;38.732;-121.358;2023-11-18T06:41:57;5.80;;;5.40;;
49784;SDS011;35679;38.732;-121.358;2023-11-18T06:44:46;5.65;;;5.18;;
49784;SDS011;35679;38.732;-121.358;2023-11-18T06:47:37;5.13;;;4.82;;
49784;SDS011;35679;38.732;-121.358;2023-11-18T06:50:27;5.32;;;4.88;;
49784;SDS011;35679;38.732;-121.358;2023-11-18T06:53:16;4.70;;;4.40;;
49784;SDS011;35679;38.732;-121.358;2023-11-18T06:56:05;6.00;;;5.53;;
49784;SDS011;35679;38.732;-121.358;2023-11-18T06:58:55;5.72;;;5.32;;
49784;SDS011;35679;38.732;-121.358;2023-11-18T07:01:45;5.80;;;5.40;;
49784;SDS011;35679;38.732;-121.358;2023-11-18T07:04:34;6.03;;;5.60;;
49784;SDS011;35679;38.732;-121.358;2023-11-18T07:07:24;5.32;;;4.93;;
49784;SDS011;35679;38.732;-121.358;2023-11-18T07:10:13;4.38;;;3.97;;
49784;SDS011;35679;38.732;-121.358;2023-11-18T07:13:02;3.78;;;3.47;;
49784;SDS011;35679;38.732;-121.358;2023-11-18T07:15:52;3.50;;;3.20;;
49784;SDS011;35679;38.732;-121.358;2023-11-18T07:18:45;4.00;;;3.70;;
49784;SDS011;35679;38.732;-121.358;2023-11-18T07:21:35;3.50;;;3.20;;
49784;SDS011;35679;38.732;-121.358;2023-11-18T07:24:24;3.55;;;3.25;;
49784;SDS011;35679;38.732;-121.358;2023-11-18T07:27:13;3.83;;;3.10;;
49784;SDS011;35679;38.732;-121.358;2023-11-18T07:30:03;3.60;;;3.30;;
49784;SDS011;35679;38.732;-121.358;2023-11-18T07:32:58;4.75;;;3.45;;
49784;SDS011;35679;38.732;-121.358;2023-11-18T07:35:49;3.80;;;3.50;;
49784;SDS011;35679;38.732;-121.358;2023-11-18T07:38:39;3.50;;;3.20;;
49784;SDS011;35679;38.732;-121.358;2023-11-18T07:41:30;3.60;;;3.30;;
49784;SDS011;35679;38.732;-121.358;2023-11-18T07:44:21;3.67;;;3.30;;
49784;SDS011;35679;38.732;-121.358;2023-11-18T07:47:12;3.60;;;3.30;;
49784;SDS011;35679;38.732;-121.358;2023-11-18T07:50:01;3.80;;;3.45;;
49784;SDS011;35679;38.732;-121.358;2023-11-18T07:52:52;3.50;;;3.20;;
49784;SDS011;35679;38.732;-121.358;2023-11-18T07:55:42;4.30;;;3.60;;
49784;SDS011;35679;38.732;-121.358;2023-11-18T07:58:33;5.40;;;3.55;;
49784;SDS011;35679;38.732;-121.358;2023-11-18T08:01:25;4.53;;;3.63;;
49784;SDS011;35679;38.732;-121.358;2023-11-18T08:04:15;3.50;;;3.30;;
49784;SDS011;35679;38.732;-121.358;2023-11-18T08:07:07;3.58;;;3.28;;
49784;SDS011;35679;38.732;-121.358;2023-11-18T08:09:58;3.60;;;3.30;;
49784;SDS011;35679;38.732;-121.358;2023-11-18T08:12:51;4.13;;;3.72;;
49784;SDS011;35679;38.732;-121.358;2023-11-18T08:15:43;3.80;;;3.50;;
49784;SDS011;35679;38.732;-121.358;2023-11-18T08:18:35;4.05;;;3.50;;
49784;SDS011;35679;38.732;-121.358;2023-11-18T08:21:24;4.20;;;3.67;;
49784;SDS011;35679;38.732;-121.358;2023-11-18T08:24:14;4.28;;;3.80;;
49784;SDS011;35679;38.732;-121.358;2023-11-18T08:27:03;3.90;;;3.60;;
49784;SDS011;35679;38.732;-121.358;2023-11-18T08:29:54;4.30;;;3.40;;
49784;SDS011;35679;38.732;-121.358;2023-11-18T08:32:44;3.67;;;3.33;;
49784;SDS011;35679;38.732;-121.358;2023-11-18T08:35:35;4.53;;;3.70;;
49784;SDS011;35679;38.732;-121.358;2023-11-18T08:38:24;4.30;;;3.90;;
49784;SDS011;35679;38.732;-121.358;2023-11-18T08:41:16;3.85;;;3.55;;
49784;SDS011;35679;38.732;-121.358;2023-11-18T08:44:05;4.57;;;3.80;;
49784;SDS011;35679;38.732;-121.358;2023-11-18T08:47:10;3.60;;;3.30;;
49784;SDS011;35679;38.732;-121.358;2023-11-18T08:50:01;4.03;;;3.63;;
49784;SDS011;35679;38.732;-121.358;2023-11-18T08:53:00;4.03;;;3.60;;
49784;SDS011;35679;38.732;-121.358;2023-11-18T08:55:53;5.18;;;4.20;;
49784;SDS011;35679;38.732;-121.358;2023-11-18T08:58:43;4.85;;;3.90;;
49784;SDS011;35679;38.732;-121.358;2023-11-18T09:01:37;4.70;;;3.40;;
49784;SDS011;35679;38.732;-121.358;2023-11-18T09:04:28;3.90;;;3.50;;
49784;SDS011;35679;38.732;-121.358;2023-11-18T09:07:18;3.88;;;3.40;;
49784;SDS011;35679;38.732;-121.358;2023-11-18T09:10:07;4.97;;;3.60;;
49784;SDS011;35679;38.732;-121.358;2023-11-18T09:12:57;3.90;;;3.55;;
49784;SDS011;35679;38.732;-121.358;2023-11-18T09:15:49;4.32;;;3.92;;
49784;SDS011;35679;38.732;-121.358;2023-11-18T09:18:39;3.60;;;3.30;;
49784;SDS011;35679;38.732;-121.358;2023-11-18T09:21:31;4.45;;;3.70;;
49784;SDS011;35679;38.732;-121.358;2023-11-18T09:24:23;3.60;;;3.30;;
49784;SDS011;35679;38.732;-121.358;2023-11-18T09:27:13;3.78;;;3.40;;
49784;SDS011;35679;38.732;-121.358;2023-11-18T09:30:03;3.83;;;3.50;;
49784;SDS011;35679;38.732;-121.358;2023-11-18T09:33:02;3.70;;;3.40;;
49784;SDS011;35679;38.732;-121.358;2023-11-18T09:35:55;3.85;;;3.17;;
49784;SDS011;35679;38.732;-121.358;2023-11-18T09:41:37;3.80;;;3.50;;
49784;SDS011;35679;38.732;-121.358;2023-11-18T09:44:27;3.60;;;3.30;;
49784;SDS011;35679;38.732;-121.358;2023-11-18T09:47:17;3.50;;;3.20;;
49784;SDS011;35679;38.732;-121.358;2023-11-18T09:50:14;3.75;;;3.40;;
49784;SDS011;35679;38.732;-121.358;2023-11-18T09:53:09;3.35;;;3.05;;
49784;SDS011;35679;38.732;-121.358;2023-11-18T09:56:03;3.60;;;3.30;;
49784;SDS011;35679;38.732;-121.358;2023-11-18T09:59:01;3.60;;;3.30;;
49784;SDS011;35679;38.732;-121.358;2023-11-18T10:02:08;3.88;;;3.28;;
49784;SDS011;35679;38.732;-121.358;2023-11-18T10:04:58;3.40;;;3.10;;
49784;SDS011;35679;38.732;-121.358;2023-11-18T10:07:50;3.55;;;2.95;;
49784;SDS011;35679;38.732;-121.358;2023-11-18T10:10:39;3.50;;;3.20;;
49784;SDS011;35679;38.732;-121.358;2023-11-18T10:13:34;3.22;;;3.00;;
49784;SDS011;35679;38.732;-121.358;2023-11-18T10:16:29;3.58;;;3.28;;
49784;SDS011;35679;38.732;-121.358;2023-11-18T10:19:20;3.63;;;3.35;;
49784;SDS011;35679;38.732;-121.358;2023-11-18T10:22:18;3.67;;;3.22;;
49784;SDS011;35679;38.732;-121.358;2023-11-18T10:25:23;3.30;;;3.10;;
49784;SDS011;35679;38.732;-121.358;2023-11-18T10:28:34;3.60;;;3.30;;
49784;SDS011;35679;38.732;-121.358;2023-11-18T10:31:25;3.35;;;3.05;;
49784;SDS011;35679;38.732;-121.358;2023-11-18T10:34:14;3.63;;;3.30;;
49784;SDS011;35679;38.732;-121.358;2023-11-18T10:37:04;4.20;;;3.22;;
49784;SDS011;35679;38.732;-121.358;2023-11-18T10:39:54;3.03;;;2.70;;
49784;SDS011;35679;38.732;-121.358;2023-11-18T10:42:46;3.47;;;3.17;;
49784;SDS011;35679;38.732;-121.358;2023-11-18T10:45:37;3.50;;;3.20;;
49784;SDS011;35679;38.732;-121.358;2023-11-18T10:48:32;3.13;;;2.90;;
49784;SDS011;35679;38.732;-121.358;2023-11-18T10:51:22;3.25;;;3.05;;
49784;SDS011;35679;38.732;-121.358;2023-11-18T10:54:14;4.30;;;3.13;;
49784;SDS011;35679;38.732;-121.358;2023-11-18T10:57:05;3.47;;;3.17;;
49784;SDS011;35679;38.732;-121.358;2023-11-18T10:59:59;3.17;;;2.97;;
49784;SDS011;35679;38.732;-121.358;2023-11-18T11:02:49;3.17;;;2.88;;
49784;SDS011;35679;38.732;-121.358;2023-11-18T11:05:47;3.60;;;3.30;;
49784;SDS011;35679;38.732;-121.358;2023-11-18T11:08:38;3.65;;;3.03;;
49784;SDS011;35679;38.732;-121.358;2023-11-18T11:11:31;3.83;;;2.90;;
49784;SDS011;35679;38.732;-121.358;2023-11-18T11:14:30;3.42;;;3.13;;
49784;SDS011;35679;38.732;-121.358;2023-11-18T11:17:27;4.07;;;3.10;;
49784;SDS011;35679;38.732;-121.358;2023-11-18T11:20:22;3.15;;;2.78;;
49784;SDS011;35679;38.732;-121.358;2023-11-18T11:23:25;3.25;;;2.95;;
49784;SDS011;35679;38.732;-121.358;2023-11-18T11:26:59;3.35;;;3.08;;
49784;SDS011;35679;38.732;-121.358;2023-11-18T11:30:23;3.40;;;3.10;;
49784;SDS011;35679;38.732;-121.358;2023-11-18T11:36:35;3.10;;;2.90;;
49784;SDS011;35679;38.732;-121.358;2023-11-18T11:39:29;2.95;;;2.75;;
49784;SDS011;35679;38.732;-121.358;2023-11-18T11:42:24;3.20;;;2.90;;
49784;SDS011;35679;38.732;-121.358;2023-11-18T11:45:15;2.88;;;2.67;;
49784;SDS011;35679;38.732;-121.358;2023-11-18T11:48:16;4.05;;;3.13;;
49784;SDS011;35679;38.732;-121.358;2023-11-18T11:51:24;2.95;;;2.75;;
49784;SDS011;35679;38.732;-121.358;2023-11-18T11:54:26;3.30;;;3.00;;
49784;SDS011;35679;38.732;-121.358;2023-11-18T11:57:18;2.90;;;2.70;;
49784;SDS011;35679;38.732;-121.358;2023-11-18T12:00:11;3.35;;;3.05;;
49784;SDS011;35679;38.732;-121.358;2023-11-18T12:03:04;3.88;;;2.95;;
49784;SDS011;35679;38.732;-121.358;2023-11-18T12:06:01;2.72;;;2.53;;
49784;SDS011;35679;38.732;-121.358;2023-11-18T12:09:00;3.05;;;2.85;;
49784;SDS011;35679;38.732;-121.358;2023-11-18T12:11:54;3.00;;;2.80;;
49784;SDS011;35679;38.732;-121.358;2023-11-18T12:18:09;5.50;;;3.20;;
49784;SDS011;35679;38.732;-121.358;2023-11-18T12:21:01;3.13;;;2.92;;
49784;SDS011;35679;38.732;-121.358;2023-11-18T12:27:12;3.05;;;2.85;;
49784;SDS011;35679;38.732;-121.358;2023-11-18T12:30:02;2.97;;;2.78;;
49784;SDS011;35679;38.732;-121.358;2023-11-18T12:33:02;3.20;;;3.00;;
49784;SDS011;35679;38.732;-121.358;2023-11-18T12:36:19;3.15;;;2.85;;
49784;SDS011;35679;38.732;-121.358;2023-11-18T12:42:51;3.10;;;2.80;;
49784;SDS011;35679;38.732;-121.358;2023-11-18T12:46:01;3.05;;;2.85;;
49784;SDS011;35679;38.732;-121.358;2023-11-18T12:49:28;2.83;;;2.63;;
49784;SDS011;35679;38.732;-121.358;2023-11-18T12:52:17;2.92;;;2.72;;
49784;SDS011;35679;38.732;-121.358;2023-11-18T12:55:07;3.05;;;2.75;;
49784;SDS011;35679;38.732;-121.358;2023-11-18T12:57:58;2.85;;;2.60;;
49784;SDS011;35679;38.732;-121.358;2023-11-18T13:00:48;4.50;;;2.50;;
49784;SDS011;35679;38.732;-121.358;2023-11-18T13:03:38;3.47;;;2.50;;
49784;SDS011;35679;38.732;-121.358;2023-11-18T13:06:27;3.00;;;2.72;;
49784;SDS011;35679;38.732;-121.358;2023-11-18T13:09:17;3.83;;;2.42;;
49784;SDS011;35679;38.732;-121.358;2023-11-18T13:12:27;2.40;;;2.30;;
49784;SDS011;35679;38.732;-121.358;2023-11-18T13:15:17;3.13;;;2.50;;
49784;SDS011;35679;38.732;-121.358;2023-11-18T13:18:07;2.92;;;2.65;;
49784;SDS011;35679;38.732;-121.358;2023-11-18T13:20:57;3.15;;;2.47;;
49784;SDS011;35679;38.732;-121.358;2023-11-18T13:23:51;3.95;;;2.70;;
49784;SDS011;35679;38.732;-121.358;2023-11-18T13:26:42;3.15;;;2.58;;
49784;SDS011;35679;38.732;-121.358;2023-11-18T13:29:32;3.05;;;2.75;;
49784;SDS011;35679;38.732;-121.358;2023-11-18T13:32:23;6.75;;;2.72;;
49784;SDS011;35679;38.732;-121.358;2023-11-18T13:35:14;3.13;;;2.92;;
49784;SDS011;35679;38.732;-121.358;2023-11-18T13:40:57;3.67;;;2.72;;
49784;SDS011;35679;38.732;-121.358;2023-11-18T13:43:46;2.30;;;2.20;;
49784;SDS011;35679;38.732;-121.358;2023-11-18T13:46:39;3.00;;;2.20;;
49784;SDS011;35679;38.732;-121.358;2023-11-18T13:49:30;2.85;;;2.50;;
49784;SDS011;35679;38.732;-121.358;2023-11-18T13:52:22;5.10;;;2.38;;
49784;SDS011;35679;38.732;-121.358;2023-11-18T13:55:16;3.58;;;2.28;;
49784;SDS011;35679;38.732;-121.358;2023-11-18T13:58:13;2.65;;;2.45;;
49784;SDS011;35679;38.732;-121.358;2023-11-18T14:01:07;4.03;;;2.30;;
49784;SDS011;35679;38.732;-121.358;2023-11-18T14:03:56;3.20;;;2.90;;
49784;SDS011;35679;38.732;-121.358;2023-11-18T14:06:51;2.50;;;2.30;;
49784;SDS011;35679;38.732;-121.358;2023-11-18T14:09:41;5.20;;;2.20;;
49784;SDS011;35679;38.732;-121.358;2023-11-18T14:12:31;4.18;;;2.47;;
49784;SDS011;35679;38.732;-121.358;2023-11-18T14:15:20;2.85;;;2.28;;
49784;SDS011;35679;38.732;-121.358;2023-11-18T14:18:10;2.70;;;2.50;;
49784;SDS011;35679;38.732;-121.358;2023-11-18T14:21:02;8.45;;;2.53;;
49784;SDS011;35679;38.732;-121.358;2023-11-18T14:23:51;2.40;;;2.20;;
49784;SDS011;35679;38.732;-121.358;2023-11-18T14:29:33;4.97;;;2.20;;
49784;SDS011;35679;38.732;-121.358;2023-11-18T14:32:24;8.48;;;2.40;;
49784;SDS011;35679;38.732;-121.358;2023-11-18T14:35:15;3.60;;;2.35;;
49784;SDS011;35679;38.732;-121.358;2023-11-18T14:38:05;5.30;;;2.10;;
49784;SDS011;35679;38.732;-121.358;2023-11-18T14:40:57;8.60;;;2.38;;
49784;SDS011;35679;38.732;-121.358;2023-11-18T14:43:47;5.28;;;2.40;;
49784;SDS011;35679;38.732;-121.358;2023-11-18T14:46:36;5.60;;;2.10;;
49784;SDS011;35679;38.732;-121.358;2023-11-18T14:49:35;6.38;;;2.40;;
49784;SDS011;35679;38.732;-121.358;2023-11-18T14:52:24;3.92;;;2.20;;
49784;SDS011;35679;38.732;-121.358;2023-11-18T14:55:16;6.63;;;2.50;;
49784;SDS011;35679;38.732;-121.358;2023-11-18T14:58:06;2.97;;;2.20;;
49784;SDS011;35679;38.732;-121.358;2023-11-18T15:00:56;5.25;;;2.30;;
49784;SDS011;35679;38.732;-121.358;2023-11-18T15:03:45;6.20;;;2.45;;
49784;SDS011;35679;38.732;-121.358;2023-11-18T15:06:35;2.10;;;2.00;;
49784;SDS011;35679;38.732;-121.358;2023-11-18T15:09:24;2.85;;;2.38;;
49784;SDS011;35679;38.732;-121.358;2023-11-18T15:12:14;2.88;;;1.98;;
49784;SDS011;35679;38.732;-121.358;2023-11-18T15:15:04;5.78;;;1.88;;
49784;SDS011;35679;38.732;-121.358;2023-11-18T15:17:54;5.22;;;1.92;;
49784;SDS011;35679;38.732;-121.358;2023-11-18T15:20:44;3.17;;;1.80;;
49784;SDS011;35679;38.732;-121.358;2023-11-18T15:23:35;2.35;;;2.00;;
49784;SDS011;35679;38.732;-121.358;2023-11-18T15:26:24;2.00;;;1.90;;
49784;SDS011;35679;38.732;-121.358;2023-11-18T15:29:14;5.13;;;1.92;;
49784;SDS011;35679;38.732;-121.358;2023-11-18T15:32:03;2.13;;;1.95;;
49784;SDS011;35679;38.732;-121.358;2023-11-18T15:34:53;1.92;;;1.83;;
49784;SDS011;35679;38.732;-121.358;2023-11-18T15:37:43;1.90;;;1.80;;
49784;SDS011;35679;38.732;-121.358;2023-11-18T15:40:36;1.85;;;1.75;;
49784;SDS011;35679;38.732;-121.358;2023-11-18T15:43:25;2.10;;;1.90;;
49784;SDS011;35679;38.732;-121.358;2023-11-18T15:46:16;1.80;;;1.70;;
49784;SDS011;35679;38.732;-121.358;2023-11-18T15:49:06;2.53;;;1.83;;
49784;SDS011;35679;38.732;-121.358;2023-11-18T15:51:55;2.42;;;1.83;;
49784;SDS011;35679;38.732;-121.358;2023-11-18T15:54:44;1.90;;;1.70;;
49784;SDS011;35679;38.732;-121.358;2023-11-18T15:57:36;2.55;;;1.80;;
49784;SDS011;35679;38.732;-121.358;2023-11-18T16:00:27;2.08;;;1.70;;
49784;SDS011;35679;38.732;-121.358;2023-11-18T16:03:16;2.13;;;2.03;;
49784;SDS011;35679;38.732;-121.358;2023-11-18T16:06:06;2.00;;;1.90;;
49784;SDS011;35679;38.732;-121.358;2023-11-18T16:08:56;2.00;;;1.90;;
49784;SDS011;35679;38.732;-121.358;2023-11-18T16:11:45;2.00;;;1.80;;
49784;SDS011;35679;38.732;-121.358;2023-11-18T16:14:37;1.90;;;1.80;;
49784;SDS011;35679;38.732;-121.358;2023-11-18T16:17:27;2.08;;;1.98;;
49784;SDS011;35679;38.732;-121.358;2023-11-18T16:20:17;2.17;;;1.98;;
49784;SDS011;35679;38.732;-121.358;2023-11-18T16:23:08;2.00;;;1.90;;
49784;SDS011;35679;38.732;-121.358;2023-11-18T16:25:59;2.17;;;2.08;;
49784;SDS011;35679;38.732;-121.358;2023-11-18T16:28:48;1.95;;;1.80;;
49784;SDS011;35679;38.732;-121.358;2023-11-18T16:31:38;1.95;;;1.85;;
49784;SDS011;35679;38.732;-121.358;2023-11-18T16:34:27;3.95;;;3.65;;
49784;SDS011;35679;38.732;-121.358;2023-11-18T16:37:16;4.82;;;4.63;;
49784;SDS011;35679;38.732;-121.358;2023-11-18T16:40:06;4.72;;;4.43;;
49784;SDS011;35679;38.732;-121.358;2023-11-18T16:43:08;3.13;;;3.03;;
49784;SDS011;35679;38.732;-121.358;2023-11-18T16:45:57;2.15;;;2.05;;